sensor_id;sensor_type;location;lat;lon;timestamp;P1;durP1;ratioP1;P2;durP2;ratioP2
67248;SDS011;63247;54.300;18.592;2023-02-15T00:01:35;29.30;;;10.57;;
67248;SDS011;63247;54.300;18.592;2023-02-15T00:04:01;35.33;;;12.52;;
67248;SDS011;63247;54.300;18.592;2023-02-15T00:06:27;33.78;;;11.02;;
67248;SDS011;63247;54.300;18.592;2023-02-15T00:08:54;31.15;;;10.70;;
67248;SDS011;63247;54.300;18.592;2023-02-15T00:11:19;32.17;;;11.13;;
67248;SDS011;63247;54.300;18.592;2023-02-15T00:14:05;37.22;;;11.48;;
67248;SDS011;63247;54.300;18.592;2023-02-15T00:16:35;34.58;;;11.48;;
67248;SDS011;63247;54.300;18.592;2023-02-15T00:19:01;32.38;;;11.95;;
67248;SDS011;63247;54.300;18.592;2023-02-15T00:21:27;35.23;;;11.37;;
67248;SDS011;63247;54.300;18.592;2023-02-15T00:23:54;34.47;;;11.45;;
67248;SDS011;63247;54.300;18.592;2023-02-15T00:26:19;39.47;;;12.27;;
67248;SDS011;63247;54.300;18.592;2023-02-15T00:28:45;34.63;;;11.97;;
67248;SDS011;63247;54.300;18.592;2023-02-15T00:31:11;37.70;;;12.00;;
67248;SDS011;63247;54.300;18.592;2023-02-15T00:33:37;35.42;;;11.85;;
67248;SDS011;63247;54.300;18.592;2023-02-15T00:36:04;37.55;;;12.65;;
67248;SDS011;63247;54.300;18.592;2023-02-15T00:38:31;35.58;;;11.85;;
67248;SDS011;63247;54.300;18.592;2023-02-15T00:40:58;36.57;;;12.43;;
67248;SDS011;63247;54.300;18.592;2023-02-15T00:43:25;32.80;;;11.88;;
67248;SDS011;63247;54.300;18.592;2023-02-15T00:45:51;36.80;;;12.00;;
67248;SDS011;63247;54.300;18.592;2023-02-15T00:48:17;38.40;;;13.53;;
67248;SDS011;63247;54.300;18.592;2023-02-15T00:50:48;45.13;;;14.77;;
67248;SDS011;63247;54.300;18.592;2023-02-15T00:53:15;43.53;;;14.95;;
67248;SDS011;63247;54.300;18.592;2023-02-15T00:55:41;39.80;;;14.55;;
67248;SDS011;63247;54.300;18.592;2023-02-15T00:58:07;39.63;;;14.63;;
67248;SDS011;63247;54.300;18.592;2023-02-15T01:00:33;42.28;;;14.73;;
67248;SDS011;63247;54.300;18.592;2023-02-15T01:02:58;44.97;;;15.70;;
67248;SDS011;63247;54.300;18.592;2023-02-15T01:05:24;44.50;;;15.07;;
67248;SDS011;63247;54.300;18.592;2023-02-15T01:07:49;42.63;;;13.70;;
67248;SDS011;63247;54.300;18.592;2023-02-15T01:10:14;37.73;;;12.10;;
67248;SDS011;63247;54.300;18.592;2023-02-15T01:12:40;43.95;;;14.10;;
67248;SDS011;63247;54.300;18.592;2023-02-15T01:15:05;36.60;;;13.07;;
67248;SDS011;63247;54.300;18.592;2023-02-15T01:17:31;36.83;;;12.80;;
67248;SDS011;63247;54.300;18.592;2023-02-15T01:19:57;35.15;;;12.32;;
67248;SDS011;63247;54.300;18.592;2023-02-15T01:22:22;37.23;;;12.57;;
67248;SDS011;63247;54.300;18.592;2023-02-15T01:24:50;38.70;;;12.73;;
67248;SDS011;63247;54.300;18.592;2023-02-15T01:27:16;42.38;;;14.90;;
67248;SDS011;63247;54.300;18.592;2023-02-15T01:29:42;43.67;;;15.03;;
67248;SDS011;63247;54.300;18.592;2023-02-15T01:32:07;33.90;;;13.00;;
67248;SDS011;63247;54.300;18.592;2023-02-15T01:34:32;37.40;;;12.97;;
67248;SDS011;63247;54.300;18.592;2023-02-15T01:36:58;35.03;;;12.38;;
67248;SDS011;63247;54.300;18.592;2023-02-15T01:39:23;42.30;;;13.63;;
67248;SDS011;63247;54.300;18.592;2023-02-15T01:41:49;39.33;;;13.17;;
67248;SDS011;63247;54.300;18.592;2023-02-15T01:47:10;40.30;;;14.20;;
67248;SDS011;63247;54.300;18.592;2023-02-15T01:49:38;41.77;;;14.20;;
67248;SDS011;63247;54.300;18.592;2023-02-15T01:52:08;35.75;;;12.27;;
67248;SDS011;63247;54.300;18.592;2023-02-15T01:54:34;37.65;;;13.48;;
67248;SDS011;63247;54.300;18.592;2023-02-15T01:57:03;37.88;;;13.60;;
67248;SDS011;63247;54.300;18.592;2023-02-15T01:59:32;39.55;;;12.95;;
67248;SDS011;63247;54.300;18.592;2023-02-15T02:02:01;31.53;;;10.57;;
67248;SDS011;63247;54.300;18.592;2023-02-15T02:04:35;40.63;;;12.93;;
67248;SDS011;63247;54.300;18.592;2023-02-15T02:07:06;40.67;;;12.40;;
67248;SDS011;63247;54.300;18.592;2023-02-15T02:09:32;40.55;;;12.70;;
67248;SDS011;63247;54.300;18.592;2023-02-15T02:11:57;39.37;;;13.13;;
67248;SDS011;63247;54.300;18.592;2023-02-15T02:14:23;40.08;;;13.75;;
67248;SDS011;63247;54.300;18.592;2023-02-15T02:34:06;49.33;;;13.82;;
67248;SDS011;63247;54.300;18.592;2023-02-15T02:41:50;48.50;;;15.33;;
67248;SDS011;63247;54.300;18.592;2023-02-15T02:47:14;54.43;;;16.10;;
67248;SDS011;63247;54.300;18.592;2023-02-15T02:49:45;50.88;;;16.13;;
67248;SDS011;63247;54.300;18.592;2023-02-15T02:57:56;52.25;;;16.08;;
67248;SDS011;63247;54.300;18.592;2023-02-15T03:00:23;46.40;;;14.75;;
67248;SDS011;63247;54.300;18.592;2023-02-15T03:02:53;48.27;;;14.70;;
67248;SDS011;63247;54.300;18.592;2023-02-15T03:05:24;47.28;;;14.82;;
67248;SDS011;63247;54.300;18.592;2023-02-15T03:07:52;45.72;;;15.38;;
67248;SDS011;63247;54.300;18.592;2023-02-15T03:10:18;38.55;;;13.82;;
67248;SDS011;63247;54.300;18.592;2023-02-15T03:12:47;40.38;;;13.10;;
67248;SDS011;63247;54.300;18.592;2023-02-15T03:17:45;43.67;;;14.25;;
67248;SDS011;63247;54.300;18.592;2023-02-15T03:20:31;42.42;;;13.35;;
67248;SDS011;63247;54.300;18.592;2023-02-15T03:23:02;47.83;;;15.40;;
67248;SDS011;63247;54.300;18.592;2023-02-15T03:25:40;40.28;;;12.73;;
67248;SDS011;63247;54.300;18.592;2023-02-15T03:28:09;48.70;;;15.30;;
67248;SDS011;63247;54.300;18.592;2023-02-15T03:30:38;45.85;;;13.50;;
67248;SDS011;63247;54.300;18.592;2023-02-15T03:33:07;40.13;;;12.90;;
67248;SDS011;63247;54.300;18.592;2023-02-15T03:35:44;40.90;;;12.95;;
67248;SDS011;63247;54.300;18.592;2023-02-15T03:38:17;42.10;;;13.70;;
67248;SDS011;63247;54.300;18.592;2023-02-15T03:40:45;43.53;;;13.60;;
67248;SDS011;63247;54.300;18.592;2023-02-15T03:46:45;42.10;;;12.75;;
67248;SDS011;63247;54.300;18.592;2023-02-15T03:49:17;38.70;;;11.63;;
67248;SDS011;63247;54.300;18.592;2023-02-15T03:51:48;45.65;;;14.32;;
67248;SDS011;63247;54.300;18.592;2023-02-15T03:54:21;44.17;;;13.93;;
67248;SDS011;63247;54.300;18.592;2023-02-15T03:57:07;45.97;;;14.82;;
67248;SDS011;63247;54.300;18.592;2023-02-15T03:59:54;40.25;;;13.32;;
67248;SDS011;63247;54.300;18.592;2023-02-15T04:02:39;42.20;;;14.13;;
67248;SDS011;63247;54.300;18.592;2023-02-15T04:05:17;42.25;;;13.85;;
67248;SDS011;63247;54.300;18.592;2023-02-15T04:07:43;42.50;;;14.27;;
67248;SDS011;63247;54.300;18.592;2023-02-15T04:10:08;40.77;;;12.73;;
67248;SDS011;63247;54.300;18.592;2023-02-15T04:12:52;40.63;;;13.70;;
67248;SDS011;63247;54.300;18.592;2023-02-15T04:15:18;46.03;;;14.90;;
67248;SDS011;63247;54.300;18.592;2023-02-15T04:18:02;44.95;;;14.13;;
67248;SDS011;63247;54.300;18.592;2023-02-15T04:20:28;42.90;;;14.67;;
67248;SDS011;63247;54.300;18.592;2023-02-15T04:23:12;46.65;;;15.00;;
67248;SDS011;63247;54.300;18.592;2023-02-15T04:25:56;43.33;;;14.25;;
67248;SDS011;63247;54.300;18.592;2023-02-15T04:28:21;43.63;;;15.07;;
67248;SDS011;63247;54.300;18.592;2023-02-15T04:30:47;46.13;;;14.37;;
67248;SDS011;63247;54.300;18.592;2023-02-15T04:33:12;46.07;;;14.47;;
67248;SDS011;63247;54.300;18.592;2023-02-15T04:35:37;46.35;;;14.60;;
67248;SDS011;63247;54.300;18.592;2023-02-15T04:38:03;43.92;;;13.85;;
67248;SDS011;63247;54.300;18.592;2023-02-15T04:40:28;41.03;;;14.03;;
67248;SDS011;63247;54.300;18.592;2023-02-15T04:42:53;42.63;;;13.80;;
67248;SDS011;63247;54.300;18.592;2023-02-15T04:45:19;42.90;;;13.77;;
67248;SDS011;63247;54.300;18.592;2023-02-15T04:47:44;47.13;;;14.90;;
67248;SDS011;63247;54.300;18.592;2023-02-15T04:50:10;43.80;;;14.87;;
67248;SDS011;63247;54.300;18.592;2023-02-15T04:52:35;44.60;;;14.25;;
67248;SDS011;63247;54.300;18.592;2023-02-15T04:55:01;44.13;;;14.03;;
67248;SDS011;63247;54.300;18.592;2023-02-15T04:57:26;42.10;;;13.00;;
67248;SDS011;63247;54.300;18.592;2023-02-15T04:59:52;44.67;;;14.97;;
67248;SDS011;63247;54.300;18.592;2023-02-15T05:02:17;41.15;;;13.98;;
67248;SDS011;63247;54.300;18.592;2023-02-15T05:04:43;40.50;;;14.53;;
67248;SDS011;63247;54.300;18.592;2023-02-15T05:07:08;41.07;;;14.40;;
67248;SDS011;63247;54.300;18.592;2023-02-15T05:09:33;39.73;;;13.40;;
67248;SDS011;63247;54.300;18.592;2023-02-15T05:11:59;45.57;;;14.13;;
67248;SDS011;63247;54.300;18.592;2023-02-15T05:14:24;38.47;;;12.50;;
67248;SDS011;63247;54.300;18.592;2023-02-15T05:16:49;36.63;;;12.52;;
67248;SDS011;63247;54.300;18.592;2023-02-15T05:19:15;41.00;;;13.60;;
67248;SDS011;63247;54.300;18.592;2023-02-15T05:21:40;39.87;;;13.30;;
67248;SDS011;63247;54.300;18.592;2023-02-15T05:24:05;37.73;;;13.83;;
67248;SDS011;63247;54.300;18.592;2023-02-15T05:26:51;45.72;;;13.10;;
67248;SDS011;63247;54.300;18.592;2023-02-15T05:29:35;40.30;;;13.55;;
67248;SDS011;63247;54.300;18.592;2023-02-15T05:32:00;44.47;;;14.33;;
67248;SDS011;63247;54.300;18.592;2023-02-15T05:34:25;40.53;;;14.50;;
67248;SDS011;63247;54.300;18.592;2023-02-15T05:36:51;43.97;;;14.27;;
67248;SDS011;63247;54.300;18.592;2023-02-15T05:39:16;48.97;;;14.10;;
67248;SDS011;63247;54.300;18.592;2023-02-15T05:41:41;45.10;;;14.13;;
67248;SDS011;63247;54.300;18.592;2023-02-15T05:44:07;51.13;;;15.20;;
67248;SDS011;63247;54.300;18.592;2023-02-15T05:46:32;40.75;;;13.65;;
67248;SDS011;63247;54.300;18.592;2023-02-15T05:48:57;45.78;;;14.63;;
67248;SDS011;63247;54.300;18.592;2023-02-15T05:51:23;45.23;;;15.23;;
67248;SDS011;63247;54.300;18.592;2023-02-15T05:53:48;44.07;;;14.77;;
67248;SDS011;63247;54.300;18.592;2023-02-15T05:56:13;46.53;;;16.27;;
67248;SDS011;63247;54.300;18.592;2023-02-15T05:58:40;47.23;;;15.10;;
67248;SDS011;63247;54.300;18.592;2023-02-15T06:01:10;46.30;;;15.23;;
67248;SDS011;63247;54.300;18.592;2023-02-15T06:03:40;45.92;;;15.07;;
67248;SDS011;63247;54.300;18.592;2023-02-15T06:06:06;43.00;;;15.00;;
67248;SDS011;63247;54.300;18.592;2023-02-15T06:08:32;42.22;;;14.20;;
67248;SDS011;63247;54.300;18.592;2023-02-15T06:11:00;45.10;;;14.98;;
67248;SDS011;63247;54.300;18.592;2023-02-15T06:13:25;46.00;;;15.30;;
67248;SDS011;63247;54.300;18.592;2023-02-15T06:15:51;48.90;;;16.30;;
67248;SDS011;63247;54.300;18.592;2023-02-15T06:18:16;45.60;;;15.60;;
67248;SDS011;63247;54.300;18.592;2023-02-15T06:20:42;43.63;;;14.63;;
67248;SDS011;63247;54.300;18.592;2023-02-15T06:23:07;44.70;;;15.33;;
67248;SDS011;63247;54.300;18.592;2023-02-15T06:25:32;45.27;;;15.57;;
67248;SDS011;63247;54.300;18.592;2023-02-15T06:27:58;50.27;;;16.57;;
67248;SDS011;63247;54.300;18.592;2023-02-15T06:30:23;48.60;;;17.58;;
67248;SDS011;63247;54.300;18.592;2023-02-15T06:32:49;40.97;;;14.60;;
67248;SDS011;63247;54.300;18.592;2023-02-15T06:35:14;50.70;;;17.47;;
67248;SDS011;63247;54.300;18.592;2023-02-15T06:37:40;50.07;;;16.70;;
67248;SDS011;63247;54.300;18.592;2023-02-15T06:40:05;48.47;;;16.77;;
67248;SDS011;63247;54.300;18.592;2023-02-15T06:42:31;44.20;;;14.88;;
67248;SDS011;63247;54.300;18.592;2023-02-15T06:44:57;46.20;;;15.80;;
67248;SDS011;63247;54.300;18.592;2023-02-15T06:47:22;51.87;;;18.03;;
67248;SDS011;63247;54.300;18.592;2023-02-15T06:49:47;44.40;;;16.27;;
67248;SDS011;63247;54.300;18.592;2023-02-15T06:52:13;48.72;;;17.67;;
67248;SDS011;63247;54.300;18.592;2023-02-15T06:54:38;48.78;;;16.50;;
67248;SDS011;63247;54.300;18.592;2023-02-15T06:57:03;47.90;;;16.33;;
67248;SDS011;63247;54.300;18.592;2023-02-15T06:59:29;53.23;;;17.00;;
67248;SDS011;63247;54.300;18.592;2023-02-15T07:01:54;54.67;;;19.40;;
67248;SDS011;63247;54.300;18.592;2023-02-15T07:04:20;45.03;;;15.83;;
67248;SDS011;63247;54.300;18.592;2023-02-15T07:06:45;40.77;;;14.17;;
67248;SDS011;63247;54.300;18.592;2023-02-15T07:09:10;46.70;;;16.27;;
67248;SDS011;63247;54.300;18.592;2023-02-15T07:11:36;45.03;;;15.13;;
67248;SDS011;63247;54.300;18.592;2023-02-15T07:14:20;47.63;;;16.80;;
67248;SDS011;63247;54.300;18.592;2023-02-15T07:16:45;36.77;;;13.30;;
67248;SDS011;63247;54.300;18.592;2023-02-15T07:19:11;44.93;;;16.27;;
67248;SDS011;63247;54.300;18.592;2023-02-15T07:21:36;50.83;;;15.80;;
67248;SDS011;63247;54.300;18.592;2023-02-15T07:24:02;47.53;;;15.43;;
67248;SDS011;63247;54.300;18.592;2023-02-15T07:26:28;51.75;;;15.80;;
67248;SDS011;63247;54.300;18.592;2023-02-15T07:28:53;48.23;;;17.33;;
67248;SDS011;63247;54.300;18.592;2023-02-15T07:31:18;49.40;;;16.37;;
67248;SDS011;63247;54.300;18.592;2023-02-15T07:33:44;46.25;;;16.83;;
67248;SDS011;63247;54.300;18.592;2023-02-15T07:36:09;153.30;;;48.90;;
67248;SDS011;63247;54.300;18.592;2023-02-15T07:38:38;66.47;;;20.57;;
67248;SDS011;63247;54.300;18.592;2023-02-15T07:41:05;53.70;;;17.25;;
67248;SDS011;63247;54.300;18.592;2023-02-15T07:43:34;65.85;;;19.05;;
67248;SDS011;63247;54.300;18.592;2023-02-15T07:46:02;78.80;;;20.52;;
67248;SDS011;63247;54.300;18.592;2023-02-15T07:48:29;56.35;;;17.40;;
67248;SDS011;63247;54.300;18.592;2023-02-15T07:50:58;49.97;;;16.70;;
67248;SDS011;63247;54.300;18.592;2023-02-15T07:53:24;40.97;;;13.70;;
67248;SDS011;63247;54.300;18.592;2023-02-15T07:55:49;48.43;;;16.17;;
67248;SDS011;63247;54.300;18.592;2023-02-15T07:58:14;45.10;;;14.93;;
67248;SDS011;63247;54.300;18.592;2023-02-15T08:00:40;49.30;;;15.35;;
67248;SDS011;63247;54.300;18.592;2023-02-15T08:03:26;42.28;;;13.98;;
67248;SDS011;63247;54.300;18.592;2023-02-15T08:05:55;43.83;;;15.48;;
67248;SDS011;63247;54.300;18.592;2023-02-15T08:08:23;51.58;;;16.88;;
67248;SDS011;63247;54.300;18.592;2023-02-15T08:13:53;50.17;;;16.88;;
67248;SDS011;63247;54.300;18.592;2023-02-15T08:21:46;33.00;;;11.13;;
67248;SDS011;63247;54.300;18.592;2023-02-15T08:24:14;41.13;;;13.60;;
67248;SDS011;63247;54.300;18.592;2023-02-15T08:26:41;43.92;;;14.40;;
67248;SDS011;63247;54.300;18.592;2023-02-15T08:29:10;36.85;;;13.35;;
67248;SDS011;63247;54.300;18.592;2023-02-15T08:31:35;31.63;;;11.38;;
67248;SDS011;63247;54.300;18.592;2023-02-15T08:34:02;36.77;;;13.77;;
67248;SDS011;63247;54.300;18.592;2023-02-15T08:36:29;34.70;;;12.15;;
67248;SDS011;63247;54.300;18.592;2023-02-15T08:39:00;100.63;;;31.70;;
67248;SDS011;63247;54.300;18.592;2023-02-15T08:41:28;108.63;;;34.17;;
67248;SDS011;63247;54.300;18.592;2023-02-15T08:43:58;69.05;;;24.02;;
67248;SDS011;63247;54.300;18.592;2023-02-15T08:46:27;41.63;;;13.83;;
67248;SDS011;63247;54.300;18.592;2023-02-15T08:48:55;59.92;;;21.90;;
67248;SDS011;63247;54.300;18.592;2023-02-15T08:51:22;108.68;;;42.42;;
67248;SDS011;63247;54.300;18.592;2023-02-15T08:53:53;45.67;;;17.20;;
67248;SDS011;63247;54.300;18.592;2023-02-15T08:56:21;55.90;;;22.48;;
67248;SDS011;63247;54.300;18.592;2023-02-15T08:58:52;49.27;;;17.37;;
67248;SDS011;63247;54.300;18.592;2023-02-15T09:01:19;37.20;;;13.15;;
67248;SDS011;63247;54.300;18.592;2023-02-15T09:03:47;44.35;;;14.73;;
67248;SDS011;63247;54.300;18.592;2023-02-15T09:06:14;38.58;;;13.80;;
67248;SDS011;63247;54.300;18.592;2023-02-15T09:08:40;32.97;;;12.55;;
67248;SDS011;63247;54.300;18.592;2023-02-15T09:11:10;39.27;;;14.10;;
67248;SDS011;63247;54.300;18.592;2023-02-15T09:13:38;78.60;;;29.10;;
67248;SDS011;63247;54.300;18.592;2023-02-15T09:16:05;36.90;;;14.55;;
67248;SDS011;63247;54.300;18.592;2023-02-15T09:18:33;39.05;;;15.48;;
67248;SDS011;63247;54.300;18.592;2023-02-15T09:21:06;34.22;;;12.80;;
67248;SDS011;63247;54.300;18.592;2023-02-15T09:23:33;37.38;;;13.48;;
67248;SDS011;63247;54.300;18.592;2023-02-15T09:26:01;26.90;;;9.83;;
67248;SDS011;63247;54.300;18.592;2023-02-15T09:28:28;31.05;;;11.35;;
67248;SDS011;63247;54.300;18.592;2023-02-15T09:30:53;34.40;;;13.47;;
67248;SDS011;63247;54.300;18.592;2023-02-15T09:33:19;30.07;;;11.20;;
67248;SDS011;63247;54.300;18.592;2023-02-15T09:35:44;32.80;;;12.13;;
67248;SDS011;63247;54.300;18.592;2023-02-15T09:38:09;32.03;;;10.98;;
67248;SDS011;63247;54.300;18.592;2023-02-15T09:40:38;28.85;;;10.07;;
67248;SDS011;63247;54.300;18.592;2023-02-15T09:43:19;30.38;;;10.05;;
67248;SDS011;63247;54.300;18.592;2023-02-15T09:46:03;27.45;;;9.57;;
67248;SDS011;63247;54.300;18.592;2023-02-15T09:48:40;30.95;;;10.00;;
67248;SDS011;63247;54.300;18.592;2023-02-15T09:53:52;31.02;;;12.32;;
67248;SDS011;63247;54.300;18.592;2023-02-15T09:56:31;29.15;;;10.77;;
67248;SDS011;63247;54.300;18.592;2023-02-15T10:13:21;27.80;;;10.45;;
67248;SDS011;63247;54.300;18.592;2023-02-15T10:21:24;32.08;;;11.10;;
67248;SDS011;63247;54.300;18.592;2023-02-15T10:26:56;33.58;;;11.15;;
67248;SDS011;63247;54.300;18.592;2023-02-15T10:29:43;33.97;;;11.95;;
67248;SDS011;63247;54.300;18.592;2023-02-15T10:34:52;29.52;;;10.60;;
67248;SDS011;63247;54.300;18.592;2023-02-15T10:50:49;38.20;;;12.02;;
67248;SDS011;63247;54.300;18.592;2023-02-15T10:53:19;35.40;;;10.88;;
67248;SDS011;63247;54.300;18.592;2023-02-15T11:06:32;34.92;;;12.85;;
67248;SDS011;63247;54.300;18.592;2023-02-15T11:09:01;36.17;;;13.50;;
67248;SDS011;63247;54.300;18.592;2023-02-15T11:11:32;34.83;;;13.57;;
67248;SDS011;63247;54.300;18.592;2023-02-15T11:14:02;37.55;;;13.50;;
67248;SDS011;63247;54.300;18.592;2023-02-15T11:16:32;36.45;;;15.20;;
67248;SDS011;63247;54.300;18.592;2023-02-15T11:19:11;38.20;;;13.80;;
67248;SDS011;63247;54.300;18.592;2023-02-15T11:21:51;36.67;;;13.32;;
67248;SDS011;63247;54.300;18.592;2023-02-15T11:24:20;38.93;;;13.77;;
67248;SDS011;63247;54.300;18.592;2023-02-15T11:26:50;34.83;;;14.30;;
67248;SDS011;63247;54.300;18.592;2023-02-15T11:31:49;39.63;;;15.98;;
67248;SDS011;63247;54.300;18.592;2023-02-15T11:34:24;37.17;;;14.20;;
67248;SDS011;63247;54.300;18.592;2023-02-15T11:36:58;41.53;;;15.47;;
67248;SDS011;63247;54.300;18.592;2023-02-15T11:39:29;38.65;;;14.70;;
67248;SDS011;63247;54.300;18.592;2023-02-15T11:41:57;41.78;;;14.85;;
67248;SDS011;63247;54.300;18.592;2023-02-15T11:44:34;40.90;;;14.68;;
67248;SDS011;63247;54.300;18.592;2023-02-15T11:47:08;43.25;;;16.00;;
67248;SDS011;63247;54.300;18.592;2023-02-15T11:49:36;39.13;;;15.97;;
67248;SDS011;63247;54.300;18.592;2023-02-15T11:52:04;41.22;;;15.60;;
67248;SDS011;63247;54.300;18.592;2023-02-15T11:54:34;37.22;;;13.73;;
67248;SDS011;63247;54.300;18.592;2023-02-15T11:57:03;44.45;;;17.42;;
67248;SDS011;63247;54.300;18.592;2023-02-15T11:59:32;40.20;;;15.38;;
67248;SDS011;63247;54.300;18.592;2023-02-15T12:02:01;44.03;;;16.90;;
67248;SDS011;63247;54.300;18.592;2023-02-15T12:04:32;41.80;;;16.30;;
67248;SDS011;63247;54.300;18.592;2023-02-15T12:10:26;35.13;;;13.60;;
67248;SDS011;63247;54.300;18.592;2023-02-15T12:15:36;37.42;;;14.65;;
67248;SDS011;63247;54.300;18.592;2023-02-15T12:18:03;37.47;;;14.00;;
67248;SDS011;63247;54.300;18.592;2023-02-15T12:20:29;32.03;;;12.27;;
67248;SDS011;63247;54.300;18.592;2023-02-15T12:23:01;40.15;;;14.05;;
67248;SDS011;63247;54.300;18.592;2023-02-15T12:25:33;35.63;;;13.63;;
67248;SDS011;63247;54.300;18.592;2023-02-15T12:28:02;31.13;;;11.75;;
67248;SDS011;63247;54.300;18.592;2023-02-15T12:30:45;37.55;;;14.65;;
67248;SDS011;63247;54.300;18.592;2023-02-15T12:38:40;38.55;;;15.43;;
67248;SDS011;63247;54.300;18.592;2023-02-15T12:41:26;36.37;;;12.67;;
67248;SDS011;63247;54.300;18.592;2023-02-15T12:46:40;35.10;;;14.25;;
67248;SDS011;63247;54.300;18.592;2023-02-15T12:49:07;36.27;;;13.50;;
67248;SDS011;63247;54.300;18.592;2023-02-15T12:51:43;33.55;;;13.27;;
67248;SDS011;63247;54.300;18.592;2023-02-15T12:54:24;38.63;;;15.43;;
67248;SDS011;63247;54.300;18.592;2023-02-15T12:57:12;41.80;;;14.63;;
67248;SDS011;63247;54.300;18.592;2023-02-15T13:02:41;36.08;;;13.98;;
67248;SDS011;63247;54.300;18.592;2023-02-15T13:07:38;35.92;;;13.85;;
67248;SDS011;63247;54.300;18.592;2023-02-15T13:10:25;36.03;;;13.30;;
67248;SDS011;63247;54.300;18.592;2023-02-15T13:12:54;36.87;;;13.87;;
67248;SDS011;63247;54.300;18.592;2023-02-15T13:15:44;39.25;;;14.00;;
67248;SDS011;63247;54.300;18.592;2023-02-15T13:18:14;40.67;;;15.82;;
67248;SDS011;63247;54.300;18.592;2023-02-15T13:20:44;38.60;;;13.48;;
67248;SDS011;63247;54.300;18.592;2023-02-15T13:23:20;39.58;;;13.35;;
67248;SDS011;63247;54.300;18.592;2023-02-15T13:25:52;37.47;;;13.97;;
67248;SDS011;63247;54.300;18.592;2023-02-15T13:28:22;35.95;;;14.70;;
67248;SDS011;63247;54.300;18.592;2023-02-15T13:30:50;38.25;;;14.15;;
67248;SDS011;63247;54.300;18.592;2023-02-15T13:33:28;32.28;;;11.20;;
67248;SDS011;63247;54.300;18.592;2023-02-15T13:50:35;38.28;;;14.35;;
67248;SDS011;63247;54.300;18.592;2023-02-15T13:58:52;38.08;;;14.10;;
67248;SDS011;63247;54.300;18.592;2023-02-15T14:15:52;36.80;;;14.10;;
67248;SDS011;63247;54.300;18.592;2023-02-15T14:18:19;33.33;;;12.27;;
67248;SDS011;63247;54.300;18.592;2023-02-15T14:26:14;41.20;;;14.67;;
67248;SDS011;63247;54.300;18.592;2023-02-15T14:31:34;46.88;;;16.15;;
67248;SDS011;63247;54.300;18.592;2023-02-15T14:34:04;39.95;;;14.90;;
67248;SDS011;63247;54.300;18.592;2023-02-15T14:36:31;38.38;;;14.02;;
67248;SDS011;63247;54.300;18.592;2023-02-15T14:42:15;46.42;;;16.17;;
67248;SDS011;63247;54.300;18.592;2023-02-15T14:45:38;44.25;;;15.38;;
67248;SDS011;63247;54.300;18.592;2023-02-15T14:47:48;49.10;;;16.42;;
67248;SDS011;63247;54.300;18.592;2023-02-15T14:50:45;50.05;;;16.98;;
67248;SDS011;63247;54.300;18.592;2023-02-15T14:58:37;52.65;;;17.70;;
67248;SDS011;63247;54.300;18.592;2023-02-15T15:01:04;53.80;;;17.95;;
67248;SDS011;63247;54.300;18.592;2023-02-15T15:03:35;49.67;;;16.38;;
67248;SDS011;63247;54.300;18.592;2023-02-15T15:06:02;48.70;;;17.07;;
67248;SDS011;63247;54.300;18.592;2023-02-15T15:08:39;40.53;;;14.27;;
67248;SDS011;63247;54.300;18.592;2023-02-15T15:19:00;54.63;;;20.50;;
67248;SDS011;63247;54.300;18.592;2023-02-15T15:30:07;51.97;;;17.98;;
67248;SDS011;63247;54.300;18.592;2023-02-15T15:46:15;48.07;;;15.63;;
67248;SDS011;63247;54.300;18.592;2023-02-15T15:49:08;57.53;;;18.55;;
67248;SDS011;63247;54.300;18.592;2023-02-15T15:51:39;59.95;;;19.77;;
67248;SDS011;63247;54.300;18.592;2023-02-15T15:54:05;51.03;;;16.67;;
67248;SDS011;63247;54.300;18.592;2023-02-15T15:56:33;49.85;;;15.75;;
67248;SDS011;63247;54.300;18.592;2023-02-15T15:59:07;56.45;;;19.60;;
67248;SDS011;63247;54.300;18.592;2023-02-15T16:01:42;56.40;;;18.60;;
67248;SDS011;63247;54.300;18.592;2023-02-15T16:04:13;60.22;;;18.70;;
67248;SDS011;63247;54.300;18.592;2023-02-15T16:06:46;55.85;;;18.40;;
67248;SDS011;63247;54.300;18.592;2023-02-15T16:11:40;59.42;;;18.60;;
67248;SDS011;63247;54.300;18.592;2023-02-15T16:14:25;59.17;;;18.53;;
67248;SDS011;63247;54.300;18.592;2023-02-15T16:17:04;57.05;;;18.90;;
67248;SDS011;63247;54.300;18.592;2023-02-15T16:19:38;56.88;;;18.63;;
67248;SDS011;63247;54.300;18.592;2023-02-15T16:22:07;54.67;;;17.23;;
67248;SDS011;63247;54.300;18.592;2023-02-15T16:27:35;60.95;;;19.00;;
67248;SDS011;63247;54.300;18.592;2023-02-15T16:30:16;59.33;;;19.85;;
67248;SDS011;63247;54.300;18.592;2023-02-15T16:32:43;55.97;;;17.77;;
67248;SDS011;63247;54.300;18.592;2023-02-15T16:35:12;68.70;;;23.27;;
67248;SDS011;63247;54.300;18.592;2023-02-15T16:37:39;63.95;;;21.48;;
67248;SDS011;63247;54.300;18.592;2023-02-15T16:40:04;68.63;;;24.10;;
67248;SDS011;63247;54.300;18.592;2023-02-15T16:42:30;65.70;;;20.83;;
67248;SDS011;63247;54.300;18.592;2023-02-15T16:47:33;66.03;;;22.40;;
67248;SDS011;63247;54.300;18.592;2023-02-15T16:50:05;59.10;;;20.55;;
67248;SDS011;63247;54.300;18.592;2023-02-15T16:52:31;59.80;;;19.38;;
67248;SDS011;63247;54.300;18.592;2023-02-15T16:55:00;59.03;;;18.70;;
67248;SDS011;63247;54.300;18.592;2023-02-15T16:57:30;71.43;;;22.73;;
67248;SDS011;63247;54.300;18.592;2023-02-15T17:00:06;86.63;;;27.42;;
67248;SDS011;63247;54.300;18.592;2023-02-15T17:02:42;80.97;;;25.38;;
67248;SDS011;63247;54.300;18.592;2023-02-15T17:05:45;76.25;;;23.58;;
67248;SDS011;63247;54.300;18.592;2023-02-15T17:13:36;76.18;;;23.80;;
67248;SDS011;63247;54.300;18.592;2023-02-15T17:21:10;61.20;;;20.73;;
67248;SDS011;63247;54.300;18.592;2023-02-15T17:23:42;74.40;;;22.63;;
67248;SDS011;63247;54.300;18.592;2023-02-15T17:28:45;81.07;;;26.38;;
67248;SDS011;63247;54.300;18.592;2023-02-15T17:31:12;90.75;;;29.52;;
67248;SDS011;63247;54.300;18.592;2023-02-15T17:33:41;87.67;;;26.77;;
67248;SDS011;63247;54.300;18.592;2023-02-15T17:38:36;84.88;;;24.17;;
67248;SDS011;63247;54.300;18.592;2023-02-15T17:41:02;82.93;;;26.53;;
67248;SDS011;63247;54.300;18.592;2023-02-15T17:43:28;76.57;;;24.70;;
67248;SDS011;63247;54.300;18.592;2023-02-15T17:45:53;86.73;;;26.40;;
67248;SDS011;63247;54.300;18.592;2023-02-15T17:48:25;91.18;;;29.95;;
67248;SDS011;63247;54.300;18.592;2023-02-15T17:50:57;81.03;;;25.40;;
67248;SDS011;63247;54.300;18.592;2023-02-15T17:53:26;92.70;;;28.50;;
67248;SDS011;63247;54.300;18.592;2023-02-15T17:55:52;91.07;;;27.77;;
67248;SDS011;63247;54.300;18.592;2023-02-15T17:58:18;81.87;;;25.93;;
67248;SDS011;63247;54.300;18.592;2023-02-15T18:00:45;62.55;;;20.95;;
67248;SDS011;63247;54.300;18.592;2023-02-15T18:03:42;70.45;;;21.20;;
67248;SDS011;63247;54.300;18.592;2023-02-15T18:06:31;66.43;;;21.87;;
67248;SDS011;63247;54.300;18.592;2023-02-15T18:09:17;84.80;;;26.58;;
67248;SDS011;63247;54.300;18.592;2023-02-15T18:12:12;58.22;;;19.30;;